sensor_id;sensor_type;location;lat;lon;timestamp;P1;durP1;ratioP1;P2;durP2;ratioP2
76127;SDS011;64873;50.102;14.434;2023-06-01T00:01:39;11.38;;;3.33;;
76127;SDS011;64873;50.102;14.434;2023-06-01T00:04:05;11.38;;;3.60;;
76127;SDS011;64873;50.102;14.434;2023-06-01T00:06:32;13.52;;;3.83;;
76127;SDS011;64873;50.102;14.434;2023-06-01T00:08:57;10.43;;;3.03;;
76127;SDS011;64873;50.102;14.434;2023-06-01T00:11:23;8.18;;;3.17;;
76127;SDS011;64873;50.102;14.434;2023-06-01T00:13:50;9.07;;;3.60;;
76127;SDS011;64873;50.102;14.434;2023-06-01T00:16:16;9.85;;;2.97;;
76127;SDS011;64873;50.102;14.434;2023-06-01T00:18:42;6.78;;;3.15;;
76127;SDS011;64873;50.102;14.434;2023-06-01T00:21:08;11.02;;;3.20;;
76127;SDS011;64873;50.102;14.434;2023-06-01T00:23:34;5.05;;;2.83;;
76127;SDS011;64873;50.102;14.434;2023-06-01T00:26:00;8.05;;;3.08;;
76127;SDS011;64873;50.102;14.434;2023-06-01T00:28:26;10.30;;;3.00;;
76127;SDS011;64873;50.102;14.434;2023-06-01T00:30:52;7.32;;;2.78;;
76127;SDS011;64873;50.102;14.434;2023-06-01T00:33:21;6.68;;;2.78;;
76127;SDS011;64873;50.102;14.434;2023-06-01T00:35:46;5.65;;;2.85;;
76127;SDS011;64873;50.102;14.434;2023-06-01T00:38:12;8.52;;;2.70;;
76127;SDS011;64873;50.102;14.434;2023-06-01T00:40:38;7.90;;;3.03;;
76127;SDS011;64873;50.102;14.434;2023-06-01T00:43:03;7.47;;;3.50;;
76127;SDS011;64873;50.102;14.434;2023-06-01T00:45:29;7.63;;;2.67;;
76127;SDS011;64873;50.102;14.434;2023-06-01T00:47:55;5.35;;;2.60;;
76127;SDS011;64873;50.102;14.434;2023-06-01T00:50:21;4.72;;;2.67;;
76127;SDS011;64873;50.102;14.434;2023-06-01T00:52:48;7.70;;;2.63;;
76127;SDS011;64873;50.102;14.434;2023-06-01T00:55:15;9.13;;;2.63;;
76127;SDS011;64873;50.102;14.434;2023-06-01T00:57:42;5.50;;;2.60;;
76127;SDS011;64873;50.102;14.434;2023-06-01T01:00:08;6.43;;;2.67;;
76127;SDS011;64873;50.102;14.434;2023-06-01T01:02:36;9.48;;;2.83;;
76127;SDS011;64873;50.102;14.434;2023-06-01T01:05:04;4.82;;;2.47;;
76127;SDS011;64873;50.102;14.434;2023-06-01T01:10:23;8.20;;;2.92;;
76127;SDS011;64873;50.102;14.434;2023-06-01T01:15:36;6.85;;;2.53;;
76127;SDS011;64873;50.102;14.434;2023-06-01T01:18:26;5.88;;;3.05;;
76127;SDS011;64873;50.102;14.434;2023-06-01T01:21:00;6.78;;;2.88;;
76127;SDS011;64873;50.102;14.434;2023-06-01T01:31:12;6.72;;;2.72;;
76127;SDS011;64873;50.102;14.434;2023-06-01T01:33:41;8.13;;;2.83;;
76127;SDS011;64873;50.102;14.434;2023-06-01T01:36:08;9.65;;;2.67;;
76127;SDS011;64873;50.102;14.434;2023-06-01T01:38:35;5.10;;;2.33;;
76127;SDS011;64873;50.102;14.434;2023-06-01T01:41:01;7.80;;;3.03;;
76127;SDS011;64873;50.102;14.434;2023-06-01T01:43:27;6.15;;;2.75;;
76127;SDS011;64873;50.102;14.434;2023-06-01T01:46:01;6.75;;;2.60;;
76127;SDS011;64873;50.102;14.434;2023-06-01T01:48:35;6.65;;;2.92;;
76127;SDS011;64873;50.102;14.434;2023-06-01T01:51:07;10.63;;;3.15;;
76127;SDS011;64873;50.102;14.434;2023-06-01T01:53:38;7.50;;;2.80;;
76127;SDS011;64873;50.102;14.434;2023-06-01T01:56:08;5.53;;;2.55;;
76127;SDS011;64873;50.102;14.434;2023-06-01T01:58:34;7.45;;;3.20;;
76127;SDS011;64873;50.102;14.434;2023-06-01T02:01:00;5.90;;;2.45;;
76127;SDS011;64873;50.102;14.434;2023-06-01T02:03:28;7.65;;;2.97;;
76127;SDS011;64873;50.102;14.434;2023-06-01T02:05:53;7.28;;;2.80;;
76127;SDS011;64873;50.102;14.434;2023-06-01T02:08:18;5.97;;;2.65;;
76127;SDS011;64873;50.102;14.434;2023-06-01T02:10:44;10.80;;;2.95;;
76127;SDS011;64873;50.102;14.434;2023-06-01T02:13:10;6.30;;;2.83;;
76127;SDS011;64873;50.102;14.434;2023-06-01T02:15:35;9.23;;;2.92;;
76127;SDS011;64873;50.102;14.434;2023-06-01T02:18:00;9.48;;;3.17;;
76127;SDS011;64873;50.102;14.434;2023-06-01T02:20:27;6.57;;;2.60;;
76127;SDS011;64873;50.102;14.434;2023-06-01T02:22:53;7.82;;;2.72;;
76127;SDS011;64873;50.102;14.434;2023-06-01T02:25:18;6.53;;;3.03;;
76127;SDS011;64873;50.102;14.434;2023-06-01T02:27:44;6.25;;;3.17;;
76127;SDS011;64873;50.102;14.434;2023-06-01T02:30:10;5.97;;;2.78;;
76127;SDS011;64873;50.102;14.434;2023-06-01T02:32:36;9.05;;;3.33;;
76127;SDS011;64873;50.102;14.434;2023-06-01T02:35:02;5.38;;;3.17;;
76127;SDS011;64873;50.102;14.434;2023-06-01T02:37:28;7.07;;;3.20;;
76127;SDS011;64873;50.102;14.434;2023-06-01T02:39:54;8.90;;;3.10;;
76127;SDS011;64873;50.102;14.434;2023-06-01T02:42:19;4.18;;;2.60;;
76127;SDS011;64873;50.102;14.434;2023-06-01T02:44:44;10.88;;;2.95;;
76127;SDS011;64873;50.102;14.434;2023-06-01T02:47:10;6.82;;;3.35;;
76127;SDS011;64873;50.102;14.434;2023-06-01T02:49:35;10.27;;;3.17;;
76127;SDS011;64873;50.102;14.434;2023-06-01T02:52:01;6.60;;;2.90;;
76127;SDS011;64873;50.102;14.434;2023-06-01T02:54:26;7.28;;;3.47;;
76127;SDS011;64873;50.102;14.434;2023-06-01T02:56:52;9.20;;;3.30;;
76127;SDS011;64873;50.102;14.434;2023-06-01T02:59:17;5.35;;;3.00;;
76127;SDS011;64873;50.102;14.434;2023-06-01T03:01:42;8.45;;;3.25;;
76127;SDS011;64873;50.102;14.434;2023-06-01T03:04:08;7.78;;;3.25;;
76127;SDS011;64873;50.102;14.434;2023-06-01T03:06:35;12.10;;;3.25;;
76127;SDS011;64873;50.102;14.434;2023-06-01T03:09:02;6.38;;;3.20;;
76127;SDS011;64873;50.102;14.434;2023-06-01T03:11:28;7.95;;;3.30;;
76127;SDS011;64873;50.102;14.434;2023-06-01T03:13:53;11.38;;;3.45;;
76127;SDS011;64873;50.102;14.434;2023-06-01T03:16:21;9.88;;;3.40;;
76127;SDS011;64873;50.102;14.434;2023-06-01T03:18:47;6.07;;;3.17;;
76127;SDS011;64873;50.102;14.434;2023-06-01T03:21:13;7.15;;;3.40;;
76127;SDS011;64873;50.102;14.434;2023-06-01T03:23:38;7.88;;;2.85;;
76127;SDS011;64873;50.102;14.434;2023-06-01T03:26:08;7.40;;;3.28;;
76127;SDS011;64873;50.102;14.434;2023-06-01T03:28:42;4.60;;;3.00;;
76127;SDS011;64873;50.102;14.434;2023-06-01T03:31:08;12.23;;;3.10;;
76127;SDS011;64873;50.102;14.434;2023-06-01T03:33:36;6.75;;;2.65;;
76127;SDS011;64873;50.102;14.434;2023-06-01T03:36:02;4.22;;;2.40;;
76127;SDS011;64873;50.102;14.434;2023-06-01T03:38:28;6.00;;;2.92;;
76127;SDS011;64873;50.102;14.434;2023-06-01T03:40:54;7.90;;;3.20;;
76127;SDS011;64873;50.102;14.434;2023-06-01T03:43:19;9.38;;;3.03;;
76127;SDS011;64873;50.102;14.434;2023-06-01T03:45:45;9.45;;;3.00;;
76127;SDS011;64873;50.102;14.434;2023-06-01T03:48:10;6.38;;;2.65;;
76127;SDS011;64873;50.102;14.434;2023-06-01T03:50:36;5.18;;;2.80;;
76127;SDS011;64873;50.102;14.434;2023-06-01T03:53:01;6.75;;;2.72;;
76127;SDS011;64873;50.102;14.434;2023-06-01T03:55:27;9.80;;;2.75;;
76127;SDS011;64873;50.102;14.434;2023-06-01T03:57:54;5.70;;;3.03;;
76127;SDS011;64873;50.102;14.434;2023-06-01T04:00:19;6.05;;;2.40;;
76127;SDS011;64873;50.102;14.434;2023-06-01T04:02:46;4.05;;;2.30;;
76127;SDS011;64873;50.102;14.434;2023-06-01T04:05:14;10.60;;;2.90;;
76127;SDS011;64873;50.102;14.434;2023-06-01T04:07:42;13.10;;;2.90;;
76127;SDS011;64873;50.102;14.434;2023-06-01T04:10:09;4.78;;;2.47;;
76127;SDS011;64873;50.102;14.434;2023-06-01T04:12:37;4.75;;;2.63;;
76127;SDS011;64873;50.102;14.434;2023-06-01T04:15:03;4.97;;;2.75;;
76127;SDS011;64873;50.102;14.434;2023-06-01T04:17:28;9.48;;;3.28;;
76127;SDS011;64873;50.102;14.434;2023-06-01T04:19:54;8.05;;;2.88;;
76127;SDS011;64873;50.102;14.434;2023-06-01T04:22:19;9.02;;;2.92;;
76127;SDS011;64873;50.102;14.434;2023-06-01T04:24:45;7.93;;;2.90;;
76127;SDS011;64873;50.102;14.434;2023-06-01T04:27:10;4.95;;;2.80;;
76127;SDS011;64873;50.102;14.434;2023-06-01T04:29:42;7.18;;;2.92;;
76127;SDS011;64873;50.102;14.434;2023-06-01T04:32:09;7.88;;;2.95;;
76127;SDS011;64873;50.102;14.434;2023-06-01T04:34:35;5.78;;;2.83;;
76127;SDS011;64873;50.102;14.434;2023-06-01T04:37:00;8.18;;;3.33;;
76127;SDS011;64873;50.102;14.434;2023-06-01T04:39:29;4.68;;;2.63;;
76127;SDS011;64873;50.102;14.434;2023-06-01T04:41:55;8.63;;;3.60;;
76127;SDS011;64873;50.102;14.434;2023-06-01T04:44:22;6.32;;;3.10;;
76127;SDS011;64873;50.102;14.434;2023-06-01T04:46:47;6.88;;;2.95;;
76127;SDS011;64873;50.102;14.434;2023-06-01T04:49:15;5.65;;;2.95;;
76127;SDS011;64873;50.102;14.434;2023-06-01T04:51:40;6.72;;;2.80;;
76127;SDS011;64873;50.102;14.434;2023-06-01T04:54:07;6.07;;;3.00;;
76127;SDS011;64873;50.102;14.434;2023-06-01T04:56:32;7.40;;;3.05;;
76127;SDS011;64873;50.102;14.434;2023-06-01T04:58:58;6.25;;;2.88;;
76127;SDS011;64873;50.102;14.434;2023-06-01T05:01:24;9.93;;;3.17;;
76127;SDS011;64873;50.102;14.434;2023-06-01T05:03:50;9.23;;;2.78;;
76127;SDS011;64873;50.102;14.434;2023-06-01T05:06:19;8.65;;;3.38;;
76127;SDS011;64873;50.102;14.434;2023-06-01T05:08:45;7.05;;;3.45;;
76127;SDS011;64873;50.102;14.434;2023-06-01T05:11:11;6.32;;;3.05;;
76127;SDS011;64873;50.102;14.434;2023-06-01T05:13:40;7.55;;;2.90;;
76127;SDS011;64873;50.102;14.434;2023-06-01T05:16:06;12.20;;;3.67;;
76127;SDS011;64873;50.102;14.434;2023-06-01T05:18:33;6.07;;;3.05;;
76127;SDS011;64873;50.102;14.434;2023-06-01T05:20:59;7.25;;;3.17;;
76127;SDS011;64873;50.102;14.434;2023-06-01T05:23:25;8.10;;;3.20;;
76127;SDS011;64873;50.102;14.434;2023-06-01T05:25:52;14.15;;;3.17;;
76127;SDS011;64873;50.102;14.434;2023-06-01T05:28:24;8.75;;;3.50;;
76127;SDS011;64873;50.102;14.434;2023-06-01T05:30:50;7.93;;;3.63;;
76127;SDS011;64873;50.102;14.434;2023-06-01T05:33:15;11.93;;;3.55;;
76127;SDS011;64873;50.102;14.434;2023-06-01T05:35:41;12.05;;;4.20;;
76127;SDS011;64873;50.102;14.434;2023-06-01T05:38:06;10.23;;;4.38;;
76127;SDS011;64873;50.102;14.434;2023-06-01T05:40:32;13.18;;;4.38;;
76127;SDS011;64873;50.102;14.434;2023-06-01T05:42:57;11.63;;;3.83;;
76127;SDS011;64873;50.102;14.434;2023-06-01T05:45:22;16.75;;;4.45;;
76127;SDS011;64873;50.102;14.434;2023-06-01T05:47:48;10.27;;;4.18;;
76127;SDS011;64873;50.102;14.434;2023-06-01T05:50:13;10.07;;;4.05;;
76127;SDS011;64873;50.102;14.434;2023-06-01T05:52:39;13.95;;;3.97;;
76127;SDS011;64873;50.102;14.434;2023-06-01T05:55:07;6.53;;;3.33;;
76127;SDS011;64873;50.102;14.434;2023-06-01T05:57:33;9.02;;;3.83;;
76127;SDS011;64873;50.102;14.434;2023-06-01T05:59:58;15.07;;;4.45;;
76127;SDS011;64873;50.102;14.434;2023-06-01T06:02:24;10.35;;;3.90;;
76127;SDS011;64873;50.102;14.434;2023-06-01T06:04:49;10.93;;;3.92;;
76127;SDS011;64873;50.102;14.434;2023-06-01T06:07:14;11.68;;;3.60;;
76127;SDS011;64873;50.102;14.434;2023-06-01T06:09:40;11.25;;;3.83;;
76127;SDS011;64873;50.102;14.434;2023-06-01T06:12:06;11.73;;;3.83;;
76127;SDS011;64873;50.102;14.434;2023-06-01T06:14:32;15.13;;;4.40;;
76127;SDS011;64873;50.102;14.434;2023-06-01T06:16:57;10.25;;;3.95;;
76127;SDS011;64873;50.102;14.434;2023-06-01T06:19:23;14.25;;;4.65;;
76127;SDS011;64873;50.102;14.434;2023-06-01T06:21:48;7.93;;;4.35;;
76127;SDS011;64873;50.102;14.434;2023-06-01T06:24:14;11.77;;;3.95;;
76127;SDS011;64873;50.102;14.434;2023-06-01T06:26:39;12.30;;;4.05;;
76127;SDS011;64873;50.102;14.434;2023-06-01T06:29:05;20.80;;;5.00;;
76127;SDS011;64873;50.102;14.434;2023-06-01T06:31:30;15.80;;;4.35;;
76127;SDS011;64873;50.102;14.434;2023-06-01T06:33:56;20.52;;;4.75;;
76127;SDS011;64873;50.102;14.434;2023-06-01T06:36:21;30.92;;;5.53;;
76127;SDS011;64873;50.102;14.434;2023-06-01T06:38:47;22.70;;;4.47;;
76127;SDS011;64873;50.102;14.434;2023-06-01T06:41:12;18.92;;;3.65;;
76127;SDS011;64873;50.102;14.434;2023-06-01T06:43:38;27.73;;;5.53;;
76127;SDS011;64873;50.102;14.434;2023-06-01T06:46:03;32.03;;;4.30;;
76127;SDS011;64873;50.102;14.434;2023-06-01T06:48:29;14.93;;;3.88;;
76127;SDS011;64873;50.102;14.434;2023-06-01T06:50:54;12.68;;;3.70;;
76127;SDS011;64873;50.102;14.434;2023-06-01T06:53:20;11.20;;;3.67;;
76127;SDS011;64873;50.102;14.434;2023-06-01T06:55:46;10.60;;;3.25;;
76127;SDS011;64873;50.102;14.434;2023-06-01T06:58:12;9.32;;;3.50;;
76127;SDS011;64873;50.102;14.434;2023-06-01T07:00:38;11.18;;;3.47;;
76127;SDS011;64873;50.102;14.434;2023-06-01T07:03:05;17.17;;;3.42;;
76127;SDS011;64873;50.102;14.434;2023-06-01T07:05:31;16.17;;;3.75;;
76127;SDS011;64873;50.102;14.434;2023-06-01T07:07:56;10.23;;;3.15;;
76127;SDS011;64873;50.102;14.434;2023-06-01T07:10:22;17.08;;;3.83;;
76127;SDS011;64873;50.102;14.434;2023-06-01T07:12:47;13.10;;;3.28;;
76127;SDS011;64873;50.102;14.434;2023-06-01T07:15:13;20.70;;;3.75;;
76127;SDS011;64873;50.102;14.434;2023-06-01T07:17:38;9.45;;;3.38;;
76127;SDS011;64873;50.102;14.434;2023-06-01T07:20:04;7.65;;;3.13;;
76127;SDS011;64873;50.102;14.434;2023-06-01T07:22:33;9.02;;;3.15;;
76127;SDS011;64873;50.102;14.434;2023-06-01T07:25:00;8.90;;;3.35;;
76127;SDS011;64873;50.102;14.434;2023-06-01T07:27:25;10.85;;;3.30;;
76127;SDS011;64873;50.102;14.434;2023-06-01T07:29:51;10.30;;;3.53;;
76127;SDS011;64873;50.102;14.434;2023-06-01T07:32:20;5.97;;;2.60;;
76127;SDS011;64873;50.102;14.434;2023-06-01T07:34:46;9.90;;;3.03;;
76127;SDS011;64873;50.102;14.434;2023-06-01T07:37:12;10.82;;;3.17;;
76127;SDS011;64873;50.102;14.434;2023-06-01T07:39:37;13.70;;;3.20;;
76127;SDS011;64873;50.102;14.434;2023-06-01T07:42:03;12.40;;;2.90;;
76127;SDS011;64873;50.102;14.434;2023-06-01T07:44:28;9.43;;;3.00;;
76127;SDS011;64873;50.102;14.434;2023-06-01T07:46:54;6.32;;;2.90;;
76127;SDS011;64873;50.102;14.434;2023-06-01T07:49:19;7.93;;;2.80;;
76127;SDS011;64873;50.102;14.434;2023-06-01T07:51:45;13.57;;;3.00;;
76127;SDS011;64873;50.102;14.434;2023-06-01T07:54:10;8.18;;;2.58;;
76127;SDS011;64873;50.102;14.434;2023-06-01T07:56:36;7.68;;;2.70;;
76127;SDS011;64873;50.102;14.434;2023-06-01T07:59:01;8.45;;;2.75;;
76127;SDS011;64873;50.102;14.434;2023-06-01T08:01:27;14.50;;;3.10;;
76127;SDS011;64873;50.102;14.434;2023-06-01T08:03:52;8.65;;;2.63;;
76127;SDS011;64873;50.102;14.434;2023-06-01T08:06:18;9.25;;;2.75;;
76127;SDS011;64873;50.102;14.434;2023-06-01T08:08:47;9.88;;;2.80;;
76127;SDS011;64873;50.102;14.434;2023-06-01T08:11:14;7.28;;;2.97;;
76127;SDS011;64873;50.102;14.434;2023-06-01T08:13:40;8.77;;;2.85;;
76127;SDS011;64873;50.102;14.434;2023-06-01T08:16:06;9.18;;;2.28;;
76127;SDS011;64873;50.102;14.434;2023-06-01T08:18:31;6.70;;;2.53;;
76127;SDS011;64873;50.102;14.434;2023-06-01T08:20:57;7.28;;;2.65;;
76127;SDS011;64873;50.102;14.434;2023-06-01T08:23:25;9.02;;;2.90;;
76127;SDS011;64873;50.102;14.434;2023-06-01T08:25:51;7.65;;;2.47;;
76127;SDS011;64873;50.102;14.434;2023-06-01T08:28:16;7.45;;;2.25;;
76127;SDS011;64873;50.102;14.434;2023-06-01T08:30:42;10.20;;;2.10;;
76127;SDS011;64873;50.102;14.434;2023-06-01T08:33:07;16.85;;;2.90;;
76127;SDS011;64873;50.102;14.434;2023-06-01T08:35:33;8.60;;;2.53;;
76127;SDS011;64873;50.102;14.434;2023-06-01T08:38:02;6.50;;;2.50;;
76127;SDS011;64873;50.102;14.434;2023-06-01T08:40:28;7.40;;;2.00;;
76127;SDS011;64873;50.102;14.434;2023-06-01T08:43:05;8.70;;;2.40;;
76127;SDS011;64873;50.102;14.434;2023-06-01T08:48:05;8.70;;;2.28;;
76127;SDS011;64873;50.102;14.434;2023-06-01T08:50:36;9.60;;;2.42;;
76127;SDS011;64873;50.102;14.434;2023-06-01T08:53:02;4.65;;;1.92;;
76127;SDS011;64873;50.102;14.434;2023-06-01T08:55:29;6.50;;;1.95;;
76127;SDS011;64873;50.102;14.434;2023-06-01T08:57:55;10.95;;;2.35;;
76127;SDS011;64873;50.102;14.434;2023-06-01T09:00:22;6.68;;;1.95;;
76127;SDS011;64873;50.102;14.434;2023-06-01T09:02:49;8.00;;;2.45;;
76127;SDS011;64873;50.102;14.434;2023-06-01T09:05:14;6.93;;;2.20;;
76127;SDS011;64873;50.102;14.434;2023-06-01T09:07:42;4.68;;;2.72;;
76127;SDS011;64873;50.102;14.434;2023-06-01T09:10:07;5.78;;;2.15;;
76127;SDS011;64873;50.102;14.434;2023-06-01T09:12:33;5.88;;;2.30;;
76127;SDS011;64873;50.102;14.434;2023-06-01T09:15:11;5.50;;;2.20;;
76127;SDS011;64873;50.102;14.434;2023-06-01T09:17:41;6.05;;;2.10;;
76127;SDS011;64873;50.102;14.434;2023-06-01T09:20:29;4.85;;;2.00;;
76127;SDS011;64873;50.102;14.434;2023-06-01T09:22:54;8.23;;;2.40;;
76127;SDS011;64873;50.102;14.434;2023-06-01T09:25:24;10.13;;;2.38;;
76127;SDS011;64873;50.102;14.434;2023-06-01T09:27:54;6.15;;;2.30;;
76127;SDS011;64873;50.102;14.434;2023-06-01T09:30:21;3.85;;;1.98;;
76127;SDS011;64873;50.102;14.434;2023-06-01T09:32:49;7.47;;;2.33;;
76127;SDS011;64873;50.102;14.434;2023-06-01T09:35:41;6.00;;;2.05;;
76127;SDS011;64873;50.102;14.434;2023-06-01T09:38:09;4.38;;;1.98;;
76127;SDS011;64873;50.102;14.434;2023-06-01T09:40:36;6.13;;;2.53;;
76127;SDS011;64873;50.102;14.434;2023-06-01T09:43:03;7.32;;;2.38;;
76127;SDS011;64873;50.102;14.434;2023-06-01T09:45:43;6.57;;;2.22;;
76127;SDS011;64873;50.102;14.434;2023-06-01T09:48:15;5.53;;;2.03;;
76127;SDS011;64873;50.102;14.434;2023-06-01T09:50:46;8.05;;;2.45;;
76127;SDS011;64873;50.102;14.434;2023-06-01T09:53:11;6.53;;;2.08;;
76127;SDS011;64873;50.102;14.434;2023-06-01T09:55:40;7.78;;;2.22;;
76127;SDS011;64873;50.102;14.434;2023-06-01T09:58:23;5.88;;;2.10;;
76127;SDS011;64873;50.102;14.434;2023-06-01T10:00:49;7.80;;;2.35;;
76127;SDS011;64873;50.102;14.434;2023-06-01T10:03:16;6.07;;;2.35;;
76127;SDS011;64873;50.102;14.434;2023-06-01T10:05:43;3.65;;;2.00;;
76127;SDS011;64873;50.102;14.434;2023-06-01T10:08:13;6.55;;;2.45;;
76127;SDS011;64873;50.102;14.434;2023-06-01T10:10:41;6.03;;;2.20;;
76127;SDS011;64873;50.102;14.434;2023-06-01T10:13:11;7.60;;;2.35;;
76127;SDS011;64873;50.102;14.434;2023-06-01T10:15:37;5.07;;;2.35;;
76127;SDS011;64873;50.102;14.434;2023-06-01T10:18:03;6.05;;;2.15;;
76127;SDS011;64873;50.102;14.434;2023-06-01T10:20:31;5.38;;;2.10;;
76127;SDS011;64873;50.102;14.434;2023-06-01T10:22:59;6.03;;;2.30;;
76127;SDS011;64873;50.102;14.434;2023-06-01T10:25:38;8.82;;;2.92;;
76127;SDS011;64873;50.102;14.434;2023-06-01T10:28:09;12.95;;;2.63;;
76127;SDS011;64873;50.102;14.434;2023-06-01T10:30:36;8.75;;;3.40;;
76127;SDS011;64873;50.102;14.434;2023-06-01T10:33:02;8.75;;;2.60;;
76127;SDS011;64873;50.102;14.434;2023-06-01T10:40:48;5.28;;;2.78;;
76127;SDS011;64873;50.102;14.434;2023-06-01T10:46:01;7.82;;;2.25;;
76127;SDS011;64873;50.102;14.434;2023-06-01T10:51:20;3.95;;;1.92;;
76127;SDS011;64873;50.102;14.434;2023-06-01T10:53:46;5.25;;;2.33;;
76127;SDS011;64873;50.102;14.434;2023-06-01T10:56:17;8.25;;;2.20;;
76127;SDS011;64873;50.102;14.434;2023-06-01T10:59:32;6.50;;;2.20;;
76127;SDS011;64873;50.102;14.434;2023-06-01T11:01:36;6.38;;;1.90;;
76127;SDS011;64873;50.102;14.434;2023-06-01T11:04:02;6.25;;;2.30;;
76127;SDS011;64873;50.102;14.434;2023-06-01T11:06:29;5.50;;;1.90;;
76127;SDS011;64873;50.102;14.434;2023-06-01T11:09:00;6.30;;;2.25;;
76127;SDS011;64873;50.102;14.434;2023-06-01T11:14:31;4.75;;;1.80;;
76127;SDS011;64873;50.102;14.434;2023-06-01T11:19:57;8.13;;;2.40;;
76127;SDS011;64873;50.102;14.434;2023-06-01T11:22:24;4.38;;;2.00;;
76127;SDS011;64873;50.102;14.434;2023-06-01T11:24:51;5.10;;;2.03;;
76127;SDS011;64873;50.102;14.434;2023-06-01T11:27:19;5.60;;;2.13;;
76127;SDS011;64873;50.102;14.434;2023-06-01T11:29:48;4.60;;;1.80;;
76127;SDS011;64873;50.102;14.434;2023-06-01T11:32:14;6.88;;;2.03;;
76127;SDS011;64873;50.102;14.434;2023-06-01T11:34:40;4.72;;;1.92;;
76127;SDS011;64873;50.102;14.434;2023-06-01T11:37:18;6.20;;;2.05;;
76127;SDS011;64873;50.102;14.434;2023-06-01T11:39:44;6.32;;;2.30;;
76127;SDS011;64873;50.102;14.434;2023-06-01T11:44:42;6.07;;;1.80;;
76127;SDS011;64873;50.102;14.434;2023-06-01T11:47:10;8.85;;;2.00;;
76127;SDS011;64873;50.102;14.434;2023-06-01T11:49:43;9.80;;;2.22;;
76127;SDS011;64873;50.102;14.434;2023-06-01T11:52:17;7.82;;;2.20;;
76127;SDS011;64873;50.102;14.434;2023-06-01T11:54:43;9.95;;;2.22;;
76127;SDS011;64873;50.102;14.434;2023-06-01T11:57:08;7.60;;;2.38;;
76127;SDS011;64873;50.102;14.434;2023-06-01T11:59:47;9.05;;;2.47;;
76127;SDS011;64873;50.102;14.434;2023-06-01T12:04:56;8.57;;;2.15;;
76127;SDS011;64873;50.102;14.434;2023-06-01T12:07:27;3.67;;;2.05;;
76127;SDS011;64873;50.102;14.434;2023-06-01T12:09:53;6.63;;;2.10;;
76127;SDS011;64873;50.102;14.434;2023-06-01T12:12:23;7.28;;;2.00;;
76127;SDS011;64873;50.102;14.434;2023-06-01T12:14:50;4.75;;;1.80;;
76127;SDS011;64873;50.102;14.434;2023-06-01T12:17:16;3.55;;;1.63;;
76127;SDS011;64873;50.102;14.434;2023-06-01T12:19:49;4.00;;;1.75;;
76127;SDS011;64873;50.102;14.434;2023-06-01T12:22:15;5.93;;;1.90;;
76127;SDS011;64873;50.102;14.434;2023-06-01T12:24:42;6.20;;;2.08;;
76127;SDS011;64873;50.102;14.434;2023-06-01T12:27:13;5.47;;;1.73;;
76127;SDS011;64873;50.102;14.434;2023-06-01T12:29:44;4.57;;;1.67;;
76127;SDS011;64873;50.102;14.434;2023-06-01T12:32:11;4.63;;;2.03;;
76127;SDS011;64873;50.102;14.434;2023-06-01T12:34:39;3.67;;;1.85;;
76127;SDS011;64873;50.102;14.434;2023-06-01T12:37:18;7.20;;;2.00;;
76127;SDS011;64873;50.102;14.434;2023-06-01T12:39:51;5.45;;;1.65;;
76127;SDS011;64873;50.102;14.434;2023-06-01T12:42:18;4.65;;;1.90;;
76127;SDS011;64873;50.102;14.434;2023-06-01T12:44:51;5.72;;;2.00;;
76127;SDS011;64873;50.102;14.434;2023-06-01T12:47:17;10.40;;;2.10;;
76127;SDS011;64873;50.102;14.434;2023-06-01T12:50:00;5.03;;;2.05;;
76127;SDS011;64873;50.102;14.434;2023-06-01T12:52:27;6.15;;;2.25;;
76127;SDS011;64873;50.102;14.434;2023-06-01T12:54:52;6.80;;;2.20;;
76127;SDS011;64873;50.102;14.434;2023-06-01T12:57:18;4.45;;;2.25;;
76127;SDS011;64873;50.102;14.434;2023-06-01T12:59:43;6.85;;;2.10;;
76127;SDS011;64873;50.102;14.434;2023-06-01T13:02:09;8.77;;;1.92;;
76127;SDS011;64873;50.102;14.434;2023-06-01T13:04:34;6.47;;;2.08;;
76127;SDS011;64873;50.102;14.434;2023-06-01T13:07:00;4.95;;;1.75;;
76127;SDS011;64873;50.102;14.434;2023-06-01T13:09:27;3.92;;;2.00;;
76127;SDS011;64873;50.102;14.434;2023-06-01T13:11:53;5.07;;;1.95;;
76127;SDS011;64873;50.102;14.434;2023-06-01T13:14:18;5.78;;;2.47;;
76127;SDS011;64873;50.102;14.434;2023-06-01T13:16:45;5.63;;;2.10;;
76127;SDS011;64873;50.102;14.434;2023-06-01T13:19:10;7.15;;;1.92;;
76127;SDS011;64873;50.102;14.434;2023-06-01T13:21:35;7.50;;;1.80;;
76127;SDS011;64873;50.102;14.434;2023-06-01T13:24:01;7.82;;;2.20;;
76127;SDS011;64873;50.102;14.434;2023-06-01T13:26:28;7.65;;;2.53;;
76127;SDS011;64873;50.102;14.434;2023-06-01T13:28:54;5.88;;;2.50;;
76127;SDS011;64873;50.102;14.434;2023-06-01T13:31:19;5.28;;;2.10;;
76127;SDS011;64873;50.102;14.434;2023-06-01T13:33:45;9.48;;;2.30;;
76127;SDS011;64873;50.102;14.434;2023-06-01T13:36:10;4.97;;;2.20;;
76127;SDS011;64873;50.102;14.434;2023-06-01T13:38:36;4.15;;;2.03;;
76127;SDS011;64873;50.102;14.434;2023-06-01T13:41:01;5.45;;;2.10;;
76127;SDS011;64873;50.102;14.434;2023-06-01T13:43:27;11.68;;;2.40;;
76127;SDS011;64873;50.102;14.434;2023-06-01T13:45:52;4.00;;;2.15;;
76127;SDS011;64873;50.102;14.434;2023-06-01T13:48:18;4.25;;;2.00;;
76127;SDS011;64873;50.102;14.434;2023-06-01T13:50:43;8.70;;;1.92;;
76127;SDS011;64873;50.102;14.434;2023-06-01T13:53:09;4.30;;;1.70;;
76127;SDS011;64873;50.102;14.434;2023-06-01T13:55:34;5.50;;;1.92;;
76127;SDS011;64873;50.102;14.434;2023-06-01T13:58:01;8.68;;;2.35;;
76127;SDS011;64873;50.102;14.434;2023-06-01T14:00:27;6.35;;;2.22;;
76127;SDS011;64873;50.102;14.434;2023-06-01T14:02:52;7.00;;;2.40;;
76127;SDS011;64873;50.102;14.434;2023-06-01T14:05:18;6.95;;;2.03;;
76127;SDS011;64873;50.102;14.434;2023-06-01T14:07:43;5.05;;;2.60;;
76127;SDS011;64873;50.102;14.434;2023-06-01T14:10:11;6.60;;;2.17;;
76127;SDS011;64873;50.102;14.434;2023-06-01T14:12:38;8.45;;;1.80;;
76127;SDS011;64873;50.102;14.434;2023-06-01T14:15:04;6.63;;;2.10;;
76127;SDS011;64873;50.102;14.434;2023-06-01T14:17:30;7.25;;;2.28;;
76127;SDS011;64873;50.102;14.434;2023-06-01T14:19:56;7.22;;;2.08;;
76127;SDS011;64873;50.102;14.434;2023-06-01T14:22:21;8.63;;;1.98;;
76127;SDS011;64873;50.102;14.434;2023-06-01T14:24:47;5.85;;;1.55;;
76127;SDS011;64873;50.102;14.434;2023-06-01T14:27:12;8.00;;;2.50;;
76127;SDS011;64873;50.102;14.434;2023-06-01T14:29:38;9.20;;;2.28;;
76127;SDS011;64873;50.102;14.434;2023-06-01T14:32:03;5.25;;;2.20;;
76127;SDS011;64873;50.102;14.434;2023-06-01T14:34:29;5.13;;;1.95;;
76127;SDS011;64873;50.102;14.434;2023-06-01T14:36:54;4.93;;;2.05;;
76127;SDS011;64873;50.102;14.434;2023-06-01T14:39:20;6.22;;;1.83;;
76127;SDS011;64873;50.102;14.434;2023-06-01T14:41:46;4.38;;;2.05;;
76127;SDS011;64873;50.102;14.434;2023-06-01T14:44:11;7.25;;;2.00;;
76127;SDS011;64873;50.102;14.434;2023-06-01T14:46:37;6.03;;;1.98;;
76127;SDS011;64873;50.102;14.434;2023-06-01T14:49:03;4.00;;;1.80;;
76127;SDS011;64873;50.102;14.434;2023-06-01T14:51:29;5.20;;;2.15;;
76127;SDS011;64873;50.102;14.434;2023-06-01T14:53:57;5.63;;;1.90;;
76127;SDS011;64873;50.102;14.434;2023-06-01T14:56:22;7.13;;;1.80;;
76127;SDS011;64873;50.102;14.434;2023-06-01T14:58:48;3.15;;;2.00;;
76127;SDS011;64873;50.102;14.434;2023-06-01T15:01:13;4.35;;;2.08;;
76127;SDS011;64873;50.102;14.434;2023-06-01T15:03:39;5.25;;;1.65;;
76127;SDS011;64873;50.102;14.434;2023-06-01T15:06:04;6.93;;;2.13;;
76127;SDS011;64873;50.102;14.434;2023-06-01T15:08:31;8.35;;;2.05;;